createdAt,value
2023-05-28T00:01:36.663Z,100932.69
2023-05-28T00:04:04.110Z,100931.53
2023-05-28T00:06:31.755Z,100936.56
2023-05-28T00:08:58.849Z,100943.22
2023-05-28T00:11:27.225Z,100948.72
2023-05-28T00:13:54.617Z,100940.47
2023-05-28T00:16:22.011Z,100950.22
2023-05-28T00:18:49.168Z,100937.94
2023-05-28T00:21:16.313Z,100935.53
2023-05-28T00:23:44.164Z,100936.34
2023-05-28T00:26:11.276Z,100937.13
2023-05-28T00:28:38.836Z,100935.19
2023-05-28T00:31:06.198Z,100924.06
2023-05-28T00:33:33.399Z,100932.19
2023-05-28T00:36:00.793Z,100927.03
2023-05-28T00:38:28.192Z,100925.88
2023-05-28T00:40:58.118Z,100920.84
2023-05-28T00:43:25.761Z,100921.53
2023-05-28T00:45:53.170Z,100914.88
2023-05-28T00:48:21.030Z,100912.13
2023-05-28T00:50:48.964Z,100907.88
2023-05-28T00:53:16.398Z,100914.88
2023-05-28T00:55:43.617Z,100910.75
2023-05-28T00:58:12.670Z,100912.50
2023-05-28T01:00:44.240Z,100911.22
2023-05-28T01:03:11.628Z,100904.56
2023-05-28T01:05:38.884Z,100913.50
2023-05-28T01:08:08.040Z,100916.25
2023-05-28T01:10:36.381Z,100911.13
2023-05-28T01:13:06.682Z,100913.75
2023-05-28T01:15:34.545Z,100921.75
2023-05-28T01:18:02.871Z,100917.41
2023-05-28T01:20:32.180Z,100915.13
2023-05-28T01:23:08.318Z,100925.22
2023-05-28T01:25:38.902Z,100918.75
2023-05-28T01:28:15.676Z,100923.00
2023-05-28T01:30:44.705Z,100919.56
2023-05-28T01:33:12.541Z,100917.81
2023-05-28T01:35:43.738Z,100918.50
2023-05-28T01:38:13.492Z,100919.41
2023-05-28T01:40:45.517Z,100920.75
2023-05-28T01:43:14.426Z,100924.66
2023-05-28T01:45:41.970Z,100923.72
2023-05-28T01:48:10.052Z,100922.13
2023-05-28T01:50:37.296Z,100916.34
2023-05-28T01:53:05.122Z,100921.13
2023-05-28T01:55:34.061Z,100917.75
2023-05-28T01:58:01.237Z,100920.38
2023-05-28T02:00:28.786Z,100913.78
2023-05-28T02:02:55.986Z,100913.53
2023-05-28T02:05:24.090Z,100909.69
2023-05-28T02:07:51.320Z,100903.03
2023-05-28T02:10:18.472Z,100903.16
2023-05-28T02:12:45.785Z,100909.91
2023-05-28T02:15:12.885Z,100906.38
2023-05-28T02:17:40.134Z,100901.69
2023-05-28T02:20:09.457Z,100895.69
2023-05-28T02:22:36.802Z,100898.44
2023-05-28T02:25:04.264Z,100896.50
2023-05-28T02:27:33.238Z,100891.81
2023-05-28T02:30:00.678Z,100894.22
2023-05-28T02:32:27.950Z,100896.19
2023-05-28T02:34:56.169Z,100894.22
2023-05-28T02:37:26.439Z,100896.19
2023-05-28T02:39:53.583Z,100884.72
2023-05-28T02:42:20.900Z,100882.75
2023-05-28T02:44:50.165Z,100884.25
2023-05-28T02:47:20.958Z,100891.91
2023-05-28T02:49:48.418Z,100889.84
2023-05-28T02:52:17.068Z,100889.03
2023-05-28T02:54:46.941Z,100891.31
2023-05-28T02:57:15.691Z,100892.91
2023-05-28T02:59:43.340Z,100895.34
2023-05-28T03:02:10.518Z,100902.44
2023-05-28T03:04:37.738Z,100889.03
2023-05-28T03:07:06.714Z,100888.25
2023-05-28T03:09:37.632Z,100896.13
2023-05-28T03:12:05.092Z,100884.00
2023-05-28T03:14:34.545Z,100890.75
2023-05-28T03:17:01.877Z,100889.59
2023-05-28T03:19:29.083Z,100885.25
2023-05-28T03:21:57.009Z,100895.09
2023-05-28T03:24:27.460Z,100893.19
2023-05-28T03:26:56.827Z,100896.25
2023-05-28T03:29:24.917Z,100893.03
2023-05-28T03:32:00.647Z,100891.44
2023-05-28T03:34:28.283Z,100891.91
2023-05-28T03:36:55.474Z,100895.78
2023-05-28T03:39:23.956Z,100897.06
2023-05-28T03:41:53.045Z,100898.69
2023-05-28T03:44:23.110Z,100897.53
2023-05-28T03:46:50.773Z,100894.78
2023-05-28T03:49:20.711Z,100890.88
2023-05-28T03:51:47.921Z,100893.44
2023-05-28T03:54:17.135Z,100895.69
2023-05-28T03:56:46.370Z,100896.63
2023-05-28T03:59:13.561Z,100905.34
2023-05-28T04:01:40.819Z,100907.41
2023-05-28T04:04:08.590Z,100904.66
2023-05-28T04:06:36.279Z,100896.56
2023-05-28T04:09:04.196Z,100911.59
2023-05-28T04:11:31.856Z,100906.34
2023-05-28T04:14:00.699Z,100904.50
2023-05-28T04:16:28.710Z,100911.75
2023-05-28T04:18:56.068Z,100915.88
2023-05-28T04:21:23.469Z,100916.13
2023-05-28T04:23:50.968Z,100913.63
2023-05-28T04:26:18.340Z,100915.69
2023-05-28T04:28:45.410Z,100918.19
2023-05-28T04:31:12.479Z,100920.38
2023-05-28T04:33:39.868Z,100926.81
2023-05-28T04:36:09.389Z,100922.66
2023-05-28T04:38:36.782Z,100923.63
2023-05-28T04:41:06.173Z,100918.34
2023-05-28T04:43:34.459Z,100906.84
2023-05-28T04:46:04.671Z,100910.97
2023-05-28T04:48:36.561Z,100910.44
2023-05-28T04:51:07.815Z,100919.28
2023-05-28T04:53:35.417Z,100920.88
2023-05-28T04:56:04.913Z,100917.84
2023-05-28T04:58:32.798Z,100920.13
2023-05-28T05:01:01.223Z,100910.25
2023-05-28T05:03:33.155Z,100916.88
2023-05-28T05:06:01.686Z,100916.03
2023-05-28T05:08:29.173Z,100918.66
2023-05-28T05:10:56.358Z,100922.03
2023-05-28T05:13:24.564Z,100922.50
2023-05-28T05:15:52.616Z,100921.63
2023-05-28T05:18:21.795Z,100923.94
2023-05-28T05:20:48.871Z,100921.91
2023-05-28T05:23:16.477Z,100915.53
2023-05-28T05:25:48.230Z,100922.47
2023-05-28T05:28:15.674Z,100922.75
2023-05-28T05:30:44.092Z,100924.41
2023-05-28T05:33:11.784Z,100924.03
2023-05-28T05:35:57.252Z,100926.53
2023-05-28T05:38:43.033Z,100931.59
2023-05-28T05:41:34.494Z,100934.13
2023-05-28T05:44:12.853Z,100940.03
2023-05-28T05:46:40.098Z,100931.13
2023-05-28T05:49:09.235Z,100932.34
2023-05-28T05:51:36.955Z,100931.59
2023-05-28T05:54:04.835Z,100936.22
2023-05-28T05:56:32.167Z,100927.09
2023-05-28T05:59:00.701Z,100941.78
2023-05-28T06:01:27.885Z,100938.19
2023-05-28T06:03:55.070Z,100942.19
2023-05-28T06:06:41.444Z,100950.88
2023-05-28T06:09:30.192Z,100953.91
2023-05-28T06:12:04.260Z,100953.56
2023-05-28T06:14:33.695Z,100946.59
2023-05-28T06:17:01.034Z,100948.88
2023-05-28T06:19:28.230Z,100961.59
2023-05-28T06:21:56.856Z,100960.56
2023-05-28T06:24:24.399Z,100959.69
2023-05-28T06:26:52.169Z,100955.75
2023-05-28T06:29:19.492Z,100954.75
2023-05-28T06:31:47.290Z,100956.22
2023-05-28T06:34:16.408Z,100950.84
2023-05-28T06:36:44.605Z,100960.28
2023-05-28T06:39:12.016Z,100957.09
2023-05-28T06:41:42.589Z,100959.94
2023-05-28T06:44:19.089Z,100970.03
2023-05-28T06:46:54.926Z,100957.19
2023-05-28T06:49:23.323Z,100960.38
2023-05-28T06:51:50.776Z,100951.63
2023-05-28T06:54:18.238Z,100954.38
2023-05-28T06:56:45.702Z,100948.84
2023-05-28T06:59:32.104Z,100952.66
2023-05-28T07:02:23.300Z,100952.91
2023-05-28T07:05:05.927Z,100951.25
2023-05-28T07:07:35.088Z,100954.97
2023-05-28T07:10:02.329Z,100954.13
2023-05-28T07:12:31.990Z,100953.41
2023-05-28T07:15:00.016Z,100956.69
2023-05-28T07:17:29.014Z,100947.94
2023-05-28T07:19:58.200Z,100951.34
2023-05-28T07:22:48.925Z,100940.22
2023-05-28T07:25:16.354Z,100944.94
2023-05-28T07:27:44.006Z,100940.31
2023-05-28T07:30:12.338Z,100937.16
2023-05-28T07:32:39.569Z,100937.22
2023-05-28T07:35:07.790Z,100939.66
2023-05-28T07:44:12.776Z,100927.94
2023-05-28T07:46:40.145Z,100922.38
2023-05-28T07:49:36.351Z,100921.16
2023-05-28T07:52:03.747Z,100925.56
2023-05-28T07:54:32.331Z,100927.94
2023-05-28T07:57:01.541Z,100925.44
2023-05-28T07:59:46.714Z,100924.19
2023-05-28T08:02:13.854Z,100926.84
2023-05-28T08:04:41.095Z,100920.41
2023-05-28T08:07:11.287Z,100920.75
2023-05-28T08:09:38.719Z,100926.34
2023-05-28T08:12:06.032Z,100923.72
2023-05-28T08:14:35.238Z,100923.38
2023-05-28T08:17:07.719Z,100930.97
2023-05-28T08:20:01.667Z,100929.34
2023-05-28T08:22:44.748Z,100929.63
2023-05-28T08:25:12.265Z,100924.31
2023-05-28T08:27:39.878Z,100925.91
2023-05-28T08:30:10.110Z,100929.47
2023-05-28T08:32:45.169Z,100927.44
2023-05-28T08:35:14.152Z,100920.44
2023-05-28T08:37:41.456Z,100918.13
2023-05-28T08:40:21.105Z,100913.72
2023-05-28T08:42:48.564Z,100913.38
2023-05-28T08:45:16.149Z,100922.16
2023-05-28T08:47:50.099Z,100920.59
2023-05-28T08:50:21.711Z,100918.53
2023-05-28T08:53:03.160Z,100922.47
2023-05-28T08:55:31.440Z,100919.53
2023-05-28T08:58:12.284Z,100912.44
2023-05-28T09:00:39.865Z,100906.03
2023-05-28T09:03:25.880Z,100915.59
2023-05-28T09:05:55.511Z,100902.84
2023-05-28T09:08:24.568Z,100905.22
2023-05-28T09:10:54.391Z,100907.88
2023-05-28T09:13:21.897Z,100904.81
2023-05-28T09:15:53.088Z,100909.69
2023-05-28T09:18:22.279Z,100893.75
2023-05-28T09:20:50.993Z,100900.97
2023-05-28T09:23:22.818Z,100904.19
2023-05-28T09:26:13.630Z,100907.16
2023-05-28T09:28:57.173Z,100899.09
2023-05-28T09:31:34.938Z,100900.72
2023-05-28T09:34:05.773Z,100897.66
2023-05-28T09:36:33.088Z,100895.31
2023-05-28T09:39:00.279Z,100893.66
2023-05-28T09:41:35.222Z,100886.25
2023-05-28T09:44:05.730Z,100880.41
2023-05-28T09:46:36.759Z,100876.03
2023-05-28T09:49:05.332Z,100874.63
2023-05-28T09:51:33.721Z,100876.63
2023-05-28T09:54:07.586Z,100880.88
2023-05-28T09:56:37.365Z,100876.69
2023-05-28T09:59:08.740Z,100868.13
2023-05-28T10:02:19.538Z,100872.38
2023-05-28T10:04:49.477Z,100874.69
2023-05-28T10:07:17.378Z,100876.72
2023-05-28T10:09:46.220Z,100873.34
2023-05-28T10:12:24.272Z,100869.44
2023-05-28T10:14:52.443Z,100874.69
2023-05-28T10:17:19.712Z,100868.69
2023-05-28T10:19:47.488Z,100867.59
2023-05-28T10:22:15.709Z,100862.88
2023-05-28T10:24:44.412Z,100862.06
2023-05-28T10:27:17.892Z,100865.75
2023-05-28T10:29:47.065Z,100874.91
2023-05-28T10:32:18.107Z,100869.19
2023-05-28T10:34:45.950Z,100872.63
2023-05-28T10:37:17.364Z,100866.72
2023-05-28T10:39:49.444Z,100874.47
2023-05-28T10:42:19.004Z,100870.28
2023-05-28T10:45:02.852Z,100864.00
2023-05-28T10:47:38.031Z,100862.72
2023-05-28T10:50:19.114Z,100856.72
2023-05-28T10:53:07.471Z,100860.31
2023-05-28T10:55:55.815Z,100854.63
2023-05-28T10:58:28.290Z,100853.00
2023-05-28T11:01:05.273Z,100855.06
2023-05-28T11:03:43.185Z,100854.59
2023-05-28T11:06:12.038Z,100859.06
2023-05-28T11:08:47.078Z,100854.22
2023-05-28T11:11:18.998Z,100862.75
2023-05-28T11:13:49.239Z,100857.38
2023-05-28T11:16:19.347Z,100862.16
2023-05-28T11:19:07.106Z,100852.13
2023-05-28T11:21:34.766Z,100856.69
2023-05-28T11:24:05.847Z,100857.25
2023-05-28T11:26:34.173Z,100853.88
2023-05-28T11:29:03.069Z,100852.25
2023-05-28T11:31:31.974Z,100854.41
2023-05-28T11:33:59.304Z,100850.16
2023-05-28T11:36:26.666Z,100854.00
2023-05-28T11:39:04.014Z,100845.63
2023-05-28T11:41:32.447Z,100844.47
2023-05-28T11:43:59.654Z,100837.09
2023-05-28T11:46:27.097Z,100843.69
2023-05-28T11:48:54.296Z,100832.50
2023-05-28T11:51:22.111Z,100837.63
2023-05-28T11:53:49.459Z,100839.97
2023-05-28T11:56:16.649Z,100834.84
2023-05-28T11:58:50.170Z,100834.09
2023-05-28T12:01:18.515Z,100830.00
2023-05-28T12:03:45.855Z,100833.03
2023-05-28T12:06:18.398Z,100828.53
2023-05-28T12:08:53.015Z,100823.91
2023-05-28T12:11:27.324Z,100826.22
2023-05-28T12:13:54.553Z,100822.44
2023-05-28T12:16:21.631Z,100829.78
2023-05-28T12:18:48.765Z,100833.03
2023-05-28T12:21:22.357Z,100829.56
2023-05-28T12:23:49.754Z,100827.66
2023-05-28T12:26:18.390Z,100833.28
2023-05-28T12:28:45.588Z,100823.38
2023-05-28T12:31:12.750Z,100815.31
2023-05-28T12:33:40.798Z,100812.78
2023-05-28T12:36:08.385Z,100815.38
2023-05-28T12:38:35.696Z,100820.56
2023-05-28T12:41:05.632Z,100820.66
2023-05-28T12:43:33.379Z,100820.19
2023-05-28T12:46:01.022Z,100808.19
2023-05-28T12:48:28.102Z,100802.19
2023-05-28T12:50:55.439Z,100808.34
2023-05-28T12:53:23.855Z,100813.72
2023-05-28T12:55:51.075Z,100806.72
2023-05-28T12:58:18.408Z,100803.09
2023-05-28T13:00:45.708Z,100814.28
2023-05-28T13:03:12.904Z,100806.41
2023-05-28T13:05:40.194Z,100804.19
2023-05-28T13:08:07.640Z,100810.13
2023-05-28T13:10:35.119Z,100814.97
2023-05-28T13:13:02.288Z,100806.97
2023-05-28T13:15:29.477Z,100817.31
2023-05-28T13:17:58.571Z,100812.13
2023-05-28T13:20:26.934Z,100816.03
2023-05-28T13:22:54.140Z,100804.19
2023-05-28T13:25:21.497Z,100800.06
2023-05-28T13:27:50.299Z,100810.72
2023-05-28T13:30:18.750Z,100817.31
2023-05-28T13:32:46.068Z,100803.78
2023-05-28T13:35:15.370Z,100802.25
2023-05-28T13:37:42.432Z,100799.81
2023-05-28T13:40:12.976Z,100795.09
2023-05-28T13:42:45.446Z,100792.31
2023-05-28T13:45:13.464Z,100783.91
2023-05-28T13:47:40.984Z,100795.75
2023-05-28T13:50:10.399Z,100806.06
2023-05-28T13:52:39.660Z,100798.94
2023-05-28T13:55:07.332Z,100785.63
2023-05-28T13:57:34.443Z,100785.38
2023-05-28T14:00:07.445Z,100776.41
2023-05-28T14:02:37.895Z,100782.94
2023-05-28T14:05:05.812Z,100778.44
2023-05-28T14:07:33.057Z,100787.25
2023-05-28T14:10:00.260Z,100789.69
2023-05-28T14:12:27.579Z,100790.59
2023-05-28T14:14:56.285Z,100786.56
2023-05-28T14:17:23.475Z,100795.25
2023-05-28T14:19:50.551Z,100789.75
2023-05-28T14:22:17.788Z,100796.31
2023-05-28T14:24:48.441Z,100799.06
2023-05-28T14:27:15.708Z,100804.09
2023-05-28T14:29:43.012Z,100803.66
2023-05-28T14:32:11.184Z,100807.94
2023-05-28T14:34:38.780Z,100811.38
2023-05-28T14:37:06.098Z,100826.19
2023-05-28T14:39:33.296Z,100828.94
2023-05-28T14:42:00.703Z,100819.88
2023-05-28T14:44:28.256Z,100818.91
2023-05-28T14:46:58.079Z,100820.13
2023-05-28T14:49:25.804Z,100828.84
2023-05-28T14:51:57.520Z,100830.50
2023-05-28T14:54:27.395Z,100830.97
2023-05-28T14:56:54.718Z,100829.75
2023-05-28T14:59:23.296Z,100831.44
2023-05-28T15:01:51.804Z,100818.88
2023-05-28T15:04:20.505Z,100807.81
2023-05-28T15:06:51.327Z,100810.19
2023-05-28T15:09:19.585Z,100819.69
2023-05-28T15:11:47.138Z,100814.41
2023-05-28T15:14:14.625Z,100828.31
2023-05-28T15:16:42.037Z,100828.31
2023-05-28T15:19:09.149Z,100831.44
2023-05-28T15:21:37.010Z,100830.22
2023-05-28T15:24:04.595Z,100821.81
2023-05-28T15:26:31.877Z,100834.47
2023-05-28T15:28:59.611Z,100832.50
2023-05-28T15:31:27.852Z,100833.00
2023-05-28T15:33:55.306Z,100826.44
2023-05-28T15:36:22.918Z,100826.63
2023-05-28T15:38:50.533Z,100826.41
2023-05-28T15:41:20.673Z,100821.09
2023-05-28T15:43:48.096Z,100808.94
2023-05-28T15:46:15.672Z,100801.88
2023-05-28T15:48:42.733Z,100796.44
2023-05-28T15:51:12.356Z,100794.31
2023-05-28T15:53:40.201Z,100789.56
2023-05-28T15:56:07.749Z,100785.56
2023-05-28T15:58:44.525Z,100793.91
2023-05-28T16:01:13.620Z,100791.28
2023-05-28T16:03:41.497Z,100789.66
2023-05-28T16:06:09.687Z,100784.13
2023-05-28T16:08:38.226Z,100777.75
2023-05-28T16:11:08.484Z,100773.03
2023-05-28T16:13:41.382Z,100774.28
2023-05-28T16:16:10.935Z,100762.00
2023-05-28T16:18:39.340Z,100762.88
2023-05-28T16:21:07.987Z,100759.69
2023-05-28T16:23:35.314Z,100761.75
2023-05-28T16:26:02.913Z,100746.00
2023-05-28T16:28:36.537Z,100750.84
2023-05-28T16:31:07.345Z,100743.34
2023-05-28T16:33:37.403Z,100741.75
2023-05-28T16:36:05.133Z,100755.16
2023-05-28T16:38:33.516Z,100754.38
2023-05-28T16:41:04.043Z,100748.41
2023-05-28T16:43:31.645Z,100753.09
2023-05-28T16:45:59.902Z,100742.72
2023-05-28T16:48:28.035Z,100751.66
2023-05-28T16:50:55.056Z,100746.38
2023-05-28T16:53:22.278Z,100743.50
2023-05-28T16:55:52.047Z,100747.44
2023-05-28T16:58:20.084Z,100750.94
2023-05-28T17:00:47.668Z,100752.66
2023-05-28T17:03:15.931Z,100747.66
2023-05-28T17:05:44.330Z,100760.91
2023-05-28T17:08:12.479Z,100757.03
2023-05-28T17:10:39.680Z,100760.16
2023-05-28T17:13:08.196Z,100764.16
2023-05-28T17:15:36.814Z,100756.31
2023-05-28T17:18:05.046Z,100765.94
2023-05-28T17:20:36.708Z,100760.47
2023-05-28T17:23:04.400Z,100758.59
2023-05-28T17:25:31.668Z,100763.06
2023-05-28T17:27:59.888Z,100772.63
2023-05-28T17:30:27.115Z,100767.94
2023-05-28T17:32:54.319Z,100765.56
2023-05-28T17:35:21.536Z,100771.91
2023-05-28T17:37:48.690Z,100773.50
2023-05-28T17:40:15.954Z,100780.97
2023-05-28T17:42:43.246Z,100777.84
2023-05-28T17:45:10.703Z,100776.94
2023-05-28T17:47:38.201Z,100774.88
2023-05-28T17:50:05.993Z,100770.00
2023-05-28T17:52:34.039Z,100766.69
2023-05-28T17:55:01.278Z,100769.28
2023-05-28T17:57:28.765Z,100773.13
2023-05-28T17:59:55.984Z,100774.97
2023-05-28T18:02:23.529Z,100772.44
2023-05-28T18:04:51.269Z,100759.41
2023-05-28T18:07:18.332Z,100762.25
2023-05-28T18:09:45.592Z,100767.41
2023-05-28T18:12:12.717Z,100764.47
2023-05-28T18:14:40.005Z,100759.63
2023-05-28T18:17:07.236Z,100764.34
2023-05-28T18:19:34.499Z,100776.50
2023-05-28T18:22:01.587Z,100769.94
2023-05-28T18:24:28.885Z,100770.25
2023-05-28T18:26:56.100Z,100769.03
2023-05-28T18:29:23.581Z,100776.16
2023-05-28T18:31:50.795Z,100773.75
2023-05-28T18:34:18.157Z,100781.53
2023-05-28T18:36:48.408Z,100785.81
2023-05-28T18:39:18.134Z,100776.66
2023-05-28T18:41:46.889Z,100779.88
2023-05-28T18:44:14.415Z,100784.59
2023-05-28T18:46:41.715Z,100782.19
2023-05-28T18:49:08.963Z,100786.84
2023-05-28T18:51:39.306Z,100792.38
2023-05-28T18:54:06.368Z,100788.38
2023-05-28T18:56:34.059Z,100792.31
2023-05-28T18:59:03.394Z,100788.75
2023-05-28T19:01:35.461Z,100793.13
2023-05-28T19:04:02.886Z,100780.47
2023-05-28T19:06:32.088Z,100787.44
2023-05-28T19:08:59.274Z,100797.59
2023-05-28T19:11:27.005Z,100802.25
2023-05-28T19:13:54.095Z,100805.75
2023-05-28T19:16:22.358Z,100808.72
2023-05-28T19:18:49.435Z,100812.03
2023-05-28T19:21:21.266Z,100811.97
2023-05-28T19:23:48.533Z,100816.91
2023-05-28T19:26:15.825Z,100818.94
2023-05-28T19:28:43.205Z,100820.50
2023-05-28T19:31:12.984Z,100820.41
2023-05-28T19:33:42.879Z,100821.16
2023-05-28T19:36:12.142Z,100815.88
2023-05-28T19:38:39.402Z,100820.63
2023-05-28T19:41:20.530Z,100811.84
2023-05-28T19:43:47.745Z,100818.47
2023-05-28T19:46:17.956Z,100820.06
2023-05-28T19:48:45.387Z,100833.94
2023-05-28T19:51:12.712Z,100834.03
2023-05-28T19:53:39.972Z,100838.13
2023-05-28T19:56:07.265Z,100838.50
2023-05-28T19:58:34.508Z,100842.78
2023-05-28T20:01:01.720Z,100846.59
2023-05-28T20:03:28.883Z,100839.81
2023-05-28T20:05:56.106Z,100839.81
2023-05-28T20:08:23.315Z,100844.19
2023-05-28T20:10:50.789Z,100844.97
2023-05-28T20:13:19.341Z,100845.78
2023-05-28T20:15:47.731Z,100852.94
2023-05-28T20:18:15.065Z,100849.09
2023-05-28T20:20:42.842Z,100845.28
2023-05-28T20:23:10.219Z,100853.19
2023-05-28T20:25:37.250Z,100851.84
2023-05-28T20:28:04.537Z,100849.00
2023-05-28T20:30:32.000Z,100850.19
2023-05-28T20:32:59.719Z,100853.25
2023-05-28T20:35:30.137Z,100851.44
2023-05-28T20:38:02.569Z,100852.66
2023-05-28T20:40:30.636Z,100854.28
2023-05-28T20:42:57.787Z,100842.78
2023-05-28T20:45:25.032Z,100844.28
2023-05-28T20:47:52.249Z,100850.88
2023-05-28T20:50:19.838Z,100855.94
2023-05-28T20:52:47.013Z,100854.34
2023-05-28T20:55:14.749Z,100866.19
2023-05-28T20:57:49.920Z,100865.41
2023-05-28T21:00:17.813Z,100863.88
2023-05-28T21:02:46.567Z,100868.22
2023-05-28T21:05:14.063Z,100867.06
2023-05-28T21:07:43.139Z,100860.41
2023-05-28T21:10:10.958Z,100861.22
2023-05-28T21:12:38.104Z,100863.50
2023-05-28T21:15:07.890Z,100859.16
2023-05-28T21:17:38.016Z,100855.59
2023-05-28T21:20:07.904Z,100848.47
2023-05-28T21:22:35.678Z,100852.94
2023-05-28T21:25:02.778Z,100845.16
2023-05-28T21:27:30.852Z,100858.25
2023-05-28T21:29:57.886Z,100855.00
2023-05-28T21:32:25.052Z,100854.88
2023-05-28T21:34:52.362Z,100853.25
2023-05-28T21:37:19.432Z,100852.84
2023-05-28T21:39:47.060Z,100848.03
2023-05-28T21:42:17.798Z,100857.81
2023-05-28T21:44:45.516Z,100851.84
2023-05-28T21:47:12.675Z,100858.47
2023-05-28T21:49:39.871Z,100859.63
2023-05-28T21:52:08.478Z,100865.84
2023-05-28T21:54:36.107Z,100855.63
2023-05-28T21:57:03.234Z,100855.16
2023-05-28T21:59:32.243Z,100851.97
2023-05-28T22:01:59.348Z,100863.81
2023-05-28T22:04:27.001Z,100856.66
2023-05-28T22:06:56.773Z,100865.78
2023-05-28T22:09:25.205Z,100870.47
2023-05-28T22:11:57.300Z,100868.09
2023-05-28T22:14:25.064Z,100863.72
2023-05-28T22:16:53.910Z,100866.66
2023-05-28T22:19:23.569Z,100863.38
2023-05-28T22:21:50.888Z,100866.50
2023-05-28T22:24:19.739Z,100874.22
2023-05-28T22:26:48.049Z,100865.94
2023-05-28T22:29:15.172Z,100870.50
2023-05-28T22:31:46.193Z,100869.69
2023-05-28T22:34:13.362Z,100877.50
2023-05-28T22:36:40.604Z,100877.34
2023-05-28T22:39:09.004Z,100887.38
2023-05-28T22:41:36.014Z,100887.19
2023-05-28T22:44:04.020Z,100881.22
2023-05-28T22:46:31.343Z,100879.38
2023-05-28T22:48:59.109Z,100878.88
2023-05-28T22:51:35.784Z,100874.75
2023-05-28T22:54:02.791Z,100871.63
2023-05-28T22:56:30.300Z,100869.44
2023-05-28T22:58:57.507Z,100866.31
2023-05-28T23:01:24.781Z,100860.38
2023-05-28T23:03:51.894Z,100863.28
2023-05-28T23:06:19.168Z,100859.88
2023-05-28T23:08:46.436Z,100860.47
2023-05-28T23:11:13.580Z,100856.34
2023-05-28T23:13:40.907Z,100861.78
2023-05-28T23:16:07.976Z,100872.34
2023-05-28T23:18:37.421Z,100861.56
2023-05-28T23:21:09.309Z,100861.00
2023-05-28T23:23:37.043Z,100852.75
2023-05-28T23:26:04.375Z,100853.56
2023-05-28T23:28:31.455Z,100836.34
2023-05-28T23:31:03.322Z,100840.00
2023-05-28T23:33:30.990Z,100833.41
2023-05-28T23:35:58.050Z,100829.50
2023-05-28T23:38:25.318Z,100836.28
2023-05-28T23:40:52.562Z,100830.44
2023-05-28T23:43:19.652Z,100822.97
2023-05-28T23:45:47.832Z,100821.69
2023-05-28T23:48:16.273Z,100816.56
2023-05-28T23:50:43.414Z,100804.72
2023-05-28T23:53:10.480Z,100816.00
2023-05-28T23:55:38.221Z,100813.94
2023-05-28T23:58:05.544Z,100814.63
